sensor_id;sensor_type;location;lat;lon;timestamp;temperature;humidity
9425;DHT22;17139;52.140;11.636;2023-03-01T00:01:29;-2.70;54.00
9425;DHT22;17139;52.140;11.636;2023-03-01T00:03:57;-2.60;54.10
9425;DHT22;17139;52.140;11.636;2023-03-01T00:06:25;-2.60;54.10
9425;DHT22;17139;52.140;11.636;2023-03-01T00:08:53;-2.60;54.00
9425;DHT22;17139;52.140;11.636;2023-03-01T00:11:22;-2.60;54.00
9425;DHT22;17139;52.140;11.636;2023-03-01T00:13:53;-2.60;54.10
9425;DHT22;17139;52.140;11.636;2023-03-01T00:16:23;-2.60;53.80
9425;DHT22;17139;52.140;11.636;2023-03-01T00:18:50;-2.70;53.80
9425;DHT22;17139;52.140;11.636;2023-03-01T00:21:17;-2.80;53.80
9425;DHT22;17139;52.140;11.636;2023-03-01T00:23:44;-2.80;53.90
9425;DHT22;17139;52.140;11.636;2023-03-01T00:26:14;-2.80;54.00
9425;DHT22;17139;52.140;11.636;2023-03-01T00:28:42;-2.80;54.00
9425;DHT22;17139;52.140;11.636;2023-03-01T00:31:13;-2.80;54.00
9425;DHT22;17139;52.140;11.636;2023-03-01T00:33:40;-2.80;54.00
9425;DHT22;17139;52.140;11.636;2023-03-01T00:36:09;-2.80;54.00
9425;DHT22;17139;52.140;11.636;2023-03-01T00:38:37;-2.80;54.00
9425;DHT22;17139;52.140;11.636;2023-03-01T00:41:07;-2.60;54.00
9425;DHT22;17139;52.140;11.636;2023-03-01T00:43:35;-1.90;53.00
9425;DHT22;17139;52.140;11.636;2023-03-01T00:46:03;-2.10;52.30
9425;DHT22;17139;52.140;11.636;2023-03-01T00:48:32;-2.30;52.70
9425;DHT22;17139;52.140;11.636;2023-03-01T00:51:05;-2.50;53.20
9425;DHT22;17139;52.140;11.636;2023-03-01T00:53:32;-2.70;53.40
9425;DHT22;17139;52.140;11.636;2023-03-01T00:55:59;-2.70;53.70
9425;DHT22;17139;52.140;11.636;2023-03-01T00:58:26;-2.80;53.70
9425;DHT22;17139;52.140;11.636;2023-03-01T01:00:53;-2.90;53.60
9425;DHT22;17139;52.140;11.636;2023-03-01T01:03:21;-2.90;53.80
9425;DHT22;17139;52.140;11.636;2023-03-01T01:05:51;-2.60;53.90
9425;DHT22;17139;52.140;11.636;2023-03-01T01:08:19;-1.90;52.90
9425;DHT22;17139;52.140;11.636;2023-03-01T01:10:46;-2.20;52.20
9425;DHT22;17139;52.140;11.636;2023-03-01T01:13:14;-2.40;52.60
9425;DHT22;17139;52.140;11.636;2023-03-01T01:15:41;-2.60;53.00
9425;DHT22;17139;52.140;11.636;2023-03-01T01:18:08;-2.70;53.30
9425;DHT22;17139;52.140;11.636;2023-03-01T01:20:35;-2.80;53.40
9425;DHT22;17139;52.140;11.636;2023-03-01T01:23:06;-2.90;53.60
9425;DHT22;17139;52.140;11.636;2023-03-01T01:25:35;-3.00;53.60
9425;DHT22;17139;52.140;11.636;2023-03-01T01:28:03;-3.10;53.80
9425;DHT22;17139;52.140;11.636;2023-03-01T01:30:30;-2.50;53.60
9425;DHT22;17139;52.140;11.636;2023-03-01T01:32:57;-2.60;52.70
9425;DHT22;17139;52.140;11.636;2023-03-01T01:35:24;-2.70;53.00
9425;DHT22;17139;52.140;11.636;2023-03-01T01:37:51;-2.90;53.30
9425;DHT22;17139;52.140;11.636;2023-03-01T01:40:19;-3.00;53.50
9425;DHT22;17139;52.140;11.636;2023-03-01T01:42:46;-3.00;53.50
9425;DHT22;17139;52.140;11.636;2023-03-01T01:45:35;-3.10;53.70
9425;DHT22;17139;52.140;11.636;2023-03-01T01:48:06;-3.20;53.70
9425;DHT22;17139;52.140;11.636;2023-03-01T01:50:38;-3.20;53.90
9425;DHT22;17139;52.140;11.636;2023-03-01T01:53:10;-3.00;54.00
9425;DHT22;17139;52.140;11.636;2023-03-01T01:55:42;-2.50;53.20
9425;DHT22;17139;52.140;11.636;2023-03-01T01:58:11;-2.70;52.60
9425;DHT22;17139;52.140;11.636;2023-03-01T02:00:40;-2.90;52.90
9425;DHT22;17139;52.140;11.636;2023-03-01T02:03:10;-3.10;53.20
9425;DHT22;17139;52.140;11.636;2023-03-01T02:05:42;-3.20;53.40
9425;DHT22;17139;52.140;11.636;2023-03-01T02:08:13;-3.30;53.50
9425;DHT22;17139;52.140;11.636;2023-03-01T02:10:42;-3.50;53.60
9425;DHT22;17139;52.140;11.636;2023-03-01T02:13:09;-3.50;53.80
9425;DHT22;17139;52.140;11.636;2023-03-01T02:15:38;-3.50;54.00
9425;DHT22;17139;52.140;11.636;2023-03-01T02:18:06;-3.50;53.70
9425;DHT22;17139;52.140;11.636;2023-03-01T02:20:38;-3.50;53.80
9425;DHT22;17139;52.140;11.636;2023-03-01T02:23:22;-3.50;53.80
9425;DHT22;17139;52.140;11.636;2023-03-01T02:25:54;-3.30;53.80
9425;DHT22;17139;52.140;11.636;2023-03-01T02:28:29;-3.30;53.30
9425;DHT22;17139;52.140;11.636;2023-03-01T02:30:56;-3.40;53.20
9425;DHT22;17139;52.140;11.636;2023-03-01T02:33:41;-3.50;53.40
9425;DHT22;17139;52.140;11.636;2023-03-01T02:36:14;-3.50;53.60
9425;DHT22;17139;52.140;11.636;2023-03-01T02:38:42;-3.60;53.60
9425;DHT22;17139;52.140;11.636;2023-03-01T02:41:10;-3.70;53.60
9425;DHT22;17139;52.140;11.636;2023-03-01T02:43:40;-3.70;53.80
9425;DHT22;17139;52.140;11.636;2023-03-01T02:46:12;-3.70;53.80
9425;DHT22;17139;52.140;11.636;2023-03-01T02:48:42;-3.70;53.80
9425;DHT22;17139;52.140;11.636;2023-03-01T02:51:18;-3.80;54.40
9425;DHT22;17139;52.140;11.636;2023-03-01T02:53:56;-3.80;53.80
9425;DHT22;17139;52.140;11.636;2023-03-01T02:56:25;-3.50;54.00
9425;DHT22;17139;52.140;11.636;2023-03-01T02:58:54;-3.50;53.20
9425;DHT22;17139;52.140;11.636;2023-03-01T03:01:27;-3.60;53.30
9425;DHT22;17139;52.140;11.636;2023-03-01T03:04:03;-3.80;54.10
9425;DHT22;17139;52.140;11.636;2023-03-01T03:06:30;-3.90;53.50
9425;DHT22;17139;52.140;11.636;2023-03-01T03:08:57;-3.80;53.70
9425;DHT22;17139;52.140;11.636;2023-03-01T03:11:24;-3.80;53.80
9425;DHT22;17139;52.140;11.636;2023-03-01T03:13:51;-3.90;53.70
9425;DHT22;17139;52.140;11.636;2023-03-01T03:16:20;-3.90;53.70
9425;DHT22;17139;52.140;11.636;2023-03-01T03:18:48;-3.90;53.70
9425;DHT22;17139;52.140;11.636;2023-03-01T03:21:15;-3.30;53.70
9425;DHT22;17139;52.140;11.636;2023-03-01T03:23:43;-3.40;52.70
9425;DHT22;17139;52.140;11.636;2023-03-01T03:26:10;-3.50;52.90
9425;DHT22;17139;52.140;11.636;2023-03-01T03:28:39;-3.60;53.00
9425;DHT22;17139;52.140;11.636;2023-03-01T03:31:07;-3.70;53.30
9425;DHT22;17139;52.140;11.636;2023-03-01T03:33:35;-3.80;53.40
9425;DHT22;17139;52.140;11.636;2023-03-01T03:36:03;-3.90;53.40
9425;DHT22;17139;52.140;11.636;2023-03-01T03:38:30;-3.90;53.50
9425;DHT22;17139;52.140;11.636;2023-03-01T03:41:01;-3.90;53.60
9425;DHT22;17139;52.140;11.636;2023-03-01T03:43:30;-4.00;53.60
9425;DHT22;17139;52.140;11.636;2023-03-01T03:45:57;-3.70;53.80
9425;DHT22;17139;52.140;11.636;2023-03-01T03:48:25;-3.20;53.20
9425;DHT22;17139;52.140;11.636;2023-03-01T03:50:55;-3.30;52.40
9425;DHT22;17139;52.140;11.636;2023-03-01T03:53:24;-3.50;52.60
9425;DHT22;17139;52.140;11.636;2023-03-01T03:55:52;-3.60;53.00
9425;DHT22;17139;52.140;11.636;2023-03-01T03:58:21;-3.80;53.00
9425;DHT22;17139;52.140;11.636;2023-03-01T04:00:50;-3.90;53.30
9425;DHT22;17139;52.140;11.636;2023-03-01T04:03:18;-4.00;53.40
9425;DHT22;17139;52.140;11.636;2023-03-01T04:05:46;-4.10;53.50
9425;DHT22;17139;52.140;11.636;2023-03-01T04:08:17;-4.10;53.60
9425;DHT22;17139;52.140;11.636;2023-03-01T04:10:47;-3.80;54.00
9425;DHT22;17139;52.140;11.636;2023-03-01T04:13:17;-3.80;53.20
9425;DHT22;17139;52.140;11.636;2023-03-01T04:15:45;-3.90;53.20
9425;DHT22;17139;52.140;11.636;2023-03-01T04:18:14;-4.00;53.30
9425;DHT22;17139;52.140;11.636;2023-03-01T04:20:41;-3.60;53.60
9425;DHT22;17139;52.140;11.636;2023-03-01T04:23:12;-3.70;52.80
9425;DHT22;17139;52.140;11.636;2023-03-01T04:25:46;-3.80;52.90
9425;DHT22;17139;52.140;11.636;2023-03-01T04:28:19;-3.90;53.10
9425;DHT22;17139;52.140;11.636;2023-03-01T04:30:48;-4.10;53.20
9425;DHT22;17139;52.140;11.636;2023-03-01T04:33:15;-4.20;53.30
9425;DHT22;17139;52.140;11.636;2023-03-01T04:35:42;-4.20;53.50
9425;DHT22;17139;52.140;11.636;2023-03-01T04:38:09;-4.30;53.50
9425;DHT22;17139;52.140;11.636;2023-03-01T04:40:36;-4.30;53.60
9425;DHT22;17139;52.140;11.636;2023-03-01T04:43:05;-4.40;53.60
9425;DHT22;17139;52.140;11.636;2023-03-01T04:45:32;-4.40;53.70
9425;DHT22;17139;52.140;11.636;2023-03-01T04:48:01;-4.40;53.70
9425;DHT22;17139;52.140;11.636;2023-03-01T04:50:28;-4.50;53.50
9425;DHT22;17139;52.140;11.636;2023-03-01T04:52:55;-4.50;53.70
9425;DHT22;17139;52.140;11.636;2023-03-01T04:55:24;-4.50;53.80
9425;DHT22;17139;52.140;11.636;2023-03-01T04:57:52;-4.60;53.70
9425;DHT22;17139;52.140;11.636;2023-03-01T05:00:22;-4.60;53.70
9425;DHT22;17139;52.140;11.636;2023-03-01T05:02:50;-4.60;53.70
9425;DHT22;17139;52.140;11.636;2023-03-01T05:05:25;-4.50;53.80
9425;DHT22;17139;52.140;11.636;2023-03-01T05:07:54;-4.50;53.60
9425;DHT22;17139;52.140;11.636;2023-03-01T05:10:22;-4.50;53.60
9425;DHT22;17139;52.140;11.636;2023-03-01T05:12:49;-4.50;53.50
9425;DHT22;17139;52.140;11.636;2023-03-01T05:15:17;-4.50;53.70
9425;DHT22;17139;52.140;11.636;2023-03-01T05:17:46;-4.20;53.60
9425;DHT22;17139;52.140;11.636;2023-03-01T05:20:13;-4.20;52.80
9425;DHT22;17139;52.140;11.636;2023-03-01T05:22:40;-4.30;52.90
9425;DHT22;17139;52.140;11.636;2023-03-01T05:25:07;-4.40;53.00
9425;DHT22;17139;52.140;11.636;2023-03-01T05:27:34;-4.40;53.20
9425;DHT22;17139;52.140;11.636;2023-03-01T05:30:02;-4.50;53.20
9425;DHT22;17139;52.140;11.636;2023-03-01T05:32:40;-4.60;53.30
9425;DHT22;17139;52.140;11.636;2023-03-01T05:35:10;-3.80;53.20
9425;DHT22;17139;52.140;11.636;2023-03-01T05:37:40;-3.50;52.40
9425;DHT22;17139;52.140;11.636;2023-03-01T05:40:09;-2.80;51.50
9425;DHT22;17139;52.140;11.636;2023-03-01T05:42:45;-3.20;51.00
9425;DHT22;17139;52.140;11.636;2023-03-01T05:45:12;-3.60;51.60
9425;DHT22;17139;52.140;11.636;2023-03-01T05:47:40;-3.80;52.20
9425;DHT22;17139;52.140;11.636;2023-03-01T05:50:13;-4.00;52.70
9425;DHT22;17139;52.140;11.636;2023-03-01T05:52:44;-4.20;52.80
9425;DHT22;17139;52.140;11.636;2023-03-01T05:55:11;-4.30;53.10
9425;DHT22;17139;52.140;11.636;2023-03-01T05:57:38;-4.30;53.20
9425;DHT22;17139;52.140;11.636;2023-03-01T06:00:06;-4.20;53.30
9425;DHT22;17139;52.140;11.636;2023-03-01T06:02:34;-4.20;52.90
9425;DHT22;17139;52.140;11.636;2023-03-01T06:05:01;-4.30;52.90
9425;DHT22;17139;52.140;11.636;2023-03-01T06:07:29;-4.30;53.00
9425;DHT22;17139;52.140;11.636;2023-03-01T06:09:56;-4.40;53.00
9425;DHT22;17139;52.140;11.636;2023-03-01T06:12:23;-4.40;53.10
9425;DHT22;17139;52.140;11.636;2023-03-01T06:14:50;-4.40;53.20
9425;DHT22;17139;52.140;11.636;2023-03-01T06:17:17;-4.50;53.10
9425;DHT22;17139;52.140;11.636;2023-03-01T06:19:44;-4.40;53.20
9425;DHT22;17139;52.140;11.636;2023-03-01T06:22:11;-4.30;53.40
9425;DHT22;17139;52.140;11.636;2023-03-01T06:24:40;-4.30;52.90
9425;DHT22;17139;52.140;11.636;2023-03-01T06:27:07;-4.20;53.10
9425;DHT22;17139;52.140;11.636;2023-03-01T06:29:34;-3.80;53.20
9425;DHT22;17139;52.140;11.636;2023-03-01T06:32:01;-3.80;52.40
9425;DHT22;17139;52.140;11.636;2023-03-01T06:34:29;-3.90;52.60
9425;DHT22;17139;52.140;11.636;2023-03-01T06:36:56;-4.00;52.70
9425;DHT22;17139;52.140;11.636;2023-03-01T06:39:23;-4.10;52.70
9425;DHT22;17139;52.140;11.636;2023-03-01T06:41:51;-4.10;52.70
9425;DHT22;17139;52.140;11.636;2023-03-01T06:44:18;-4.10;52.80
9425;DHT22;17139;52.140;11.636;2023-03-01T06:46:45;-4.10;52.80
9425;DHT22;17139;52.140;11.636;2023-03-01T06:49:12;-4.10;52.80
9425;DHT22;17139;52.140;11.636;2023-03-01T06:51:39;-3.80;53.20
9425;DHT22;17139;52.140;11.636;2023-03-01T06:54:06;-3.70;52.60
9425;DHT22;17139;52.140;11.636;2023-03-01T06:56:33;-3.80;52.60
9425;DHT22;17139;52.140;11.636;2023-03-01T06:59:02;-3.80;52.70
9425;DHT22;17139;52.140;11.636;2023-03-01T07:01:29;-3.80;52.80
9425;DHT22;17139;52.140;11.636;2023-03-01T07:03:57;-3.80;52.90
9425;DHT22;17139;52.140;11.636;2023-03-01T07:06:24;-3.80;52.80
9425;DHT22;17139;52.140;11.636;2023-03-01T07:08:50;-3.70;52.90
9425;DHT22;17139;52.140;11.636;2023-03-01T07:11:17;-3.70;52.80
9425;DHT22;17139;52.140;11.636;2023-03-01T07:13:44;-3.70;52.70
9425;DHT22;17139;52.140;11.636;2023-03-01T07:16:13;-3.60;52.70
9425;DHT22;17139;52.140;11.636;2023-03-01T07:18:41;-2.90;53.20
9425;DHT22;17139;52.140;11.636;2023-03-01T07:21:11;-2.90;52.20
9425;DHT22;17139;52.140;11.636;2023-03-01T07:23:38;-3.00;52.20
9425;DHT22;17139;52.140;11.636;2023-03-01T07:26:06;-3.10;52.30
9425;DHT22;17139;52.140;11.636;2023-03-01T07:28:33;-3.10;52.40
9425;DHT22;17139;52.140;11.636;2023-03-01T07:31:02;-3.10;52.50
9425;DHT22;17139;52.140;11.636;2023-03-01T07:33:31;-3.00;52.50
9425;DHT22;17139;52.140;11.636;2023-03-01T07:35:59;-3.00;52.40
9425;DHT22;17139;52.140;11.636;2023-03-01T07:38:27;-2.90;52.50
9425;DHT22;17139;52.140;11.636;2023-03-01T07:40:58;-2.90;52.50
9425;DHT22;17139;52.140;11.636;2023-03-01T07:43:26;-2.50;52.80
9425;DHT22;17139;52.140;11.636;2023-03-01T07:45:53;-1.70;51.80
9425;DHT22;17139;52.140;11.636;2023-03-01T07:48:20;-1.90;51.10
9425;DHT22;17139;52.140;11.636;2023-03-01T07:50:48;-2.00;51.40
9425;DHT22;17139;52.140;11.636;2023-03-01T07:53:15;-2.10;51.50
9425;DHT22;17139;52.140;11.636;2023-03-01T07:55:42;-2.20;51.80
9425;DHT22;17139;52.140;11.636;2023-03-01T07:58:09;-2.20;51.90
9425;DHT22;17139;52.140;11.636;2023-03-01T08:00:36;-2.10;52.00
9425;DHT22;17139;52.140;11.636;2023-03-01T08:03:03;-2.10;52.00
9425;DHT22;17139;52.140;11.636;2023-03-01T08:05:30;-2.10;52.00
9425;DHT22;17139;52.140;11.636;2023-03-01T08:07:59;-1.50;51.90
9425;DHT22;17139;52.140;11.636;2023-03-01T08:10:26;-1.50;51.40
9425;DHT22;17139;52.140;11.636;2023-03-01T08:12:53;-1.60;51.50
9425;DHT22;17139;52.140;11.636;2023-03-01T08:15:20;-1.60;51.80
9425;DHT22;17139;52.140;11.636;2023-03-01T08:17:49;-1.60;51.80
9425;DHT22;17139;52.140;11.636;2023-03-01T08:20:17;-1.60;51.80
9425;DHT22;17139;52.140;11.636;2023-03-01T08:22:44;-1.50;51.90
9425;DHT22;17139;52.140;11.636;2023-03-01T08:25:12;-1.50;51.90
9425;DHT22;17139;52.140;11.636;2023-03-01T08:27:39;-1.40;51.90
9425;DHT22;17139;52.140;11.636;2023-03-01T08:30:07;-1.20;52.00
9425;DHT22;17139;52.140;11.636;2023-03-01T08:32:38;-1.10;51.60
9425;DHT22;17139;52.140;11.636;2023-03-01T08:35:06;-1.10;51.50
9425;DHT22;17139;52.140;11.636;2023-03-01T08:37:33;-1.10;51.60
9425;DHT22;17139;52.140;11.636;2023-03-01T08:40:00;-1.10;51.50
9425;DHT22;17139;52.140;11.636;2023-03-01T08:42:29;-1.00;51.50
9425;DHT22;17139;52.140;11.636;2023-03-01T08:44:56;-1.00;51.50
9425;DHT22;17139;52.140;11.636;2023-03-01T08:47:23;-0.90;51.60
9425;DHT22;17139;52.140;11.636;2023-03-01T08:49:51;-0.90;51.50
9425;DHT22;17139;52.140;11.636;2023-03-01T08:52:19;-0.60;51.50
9425;DHT22;17139;52.140;11.636;2023-03-01T08:54:47;-0.30;50.90
9425;DHT22;17139;52.140;11.636;2023-03-01T08:57:14;-0.30;50.70
9425;DHT22;17139;52.140;11.636;2023-03-01T08:59:43;-0.40;50.90
9425;DHT22;17139;52.140;11.636;2023-03-01T09:02:12;-0.40;51.10
9425;DHT22;17139;52.140;11.636;2023-03-01T09:04:40;-0.40;51.20
9425;DHT22;17139;52.140;11.636;2023-03-01T09:07:08;-0.40;51.30
9425;DHT22;17139;52.140;11.636;2023-03-01T09:09:35;-0.30;51.40
9425;DHT22;17139;52.140;11.636;2023-03-01T09:12:03;-0.30;51.40
9425;DHT22;17139;52.140;11.636;2023-03-01T09:14:31;-0.10;51.30
9425;DHT22;17139;52.140;11.636;2023-03-01T09:17:00;0.00;51.20
9425;DHT22;17139;52.140;11.636;2023-03-01T09:19:28;0.10;51.30
9425;DHT22;17139;52.140;11.636;2023-03-01T09:21:55;0.10;51.30
9425;DHT22;17139;52.140;11.636;2023-03-01T09:24:24;0.50;51.10
9425;DHT22;17139;52.140;11.636;2023-03-01T09:26:53;0.50;50.80
9425;DHT22;17139;52.140;11.636;2023-03-01T09:29:21;0.50;51.00
9425;DHT22;17139;52.140;11.636;2023-03-01T09:31:49;0.40;51.10
9425;DHT22;17139;52.140;11.636;2023-03-01T09:34:17;0.70;50.70
9425;DHT22;17139;52.140;11.636;2023-03-01T09:36:49;1.20;50.20
9425;DHT22;17139;52.140;11.636;2023-03-01T09:39:17;1.10;50.30
9425;DHT22;17139;52.140;11.636;2023-03-01T09:41:49;0.90;50.60
9425;DHT22;17139;52.140;11.636;2023-03-01T09:44:26;0.90;50.90
9425;DHT22;17139;52.140;11.636;2023-03-01T09:46:57;0.90;51.10
9425;DHT22;17139;52.140;11.636;2023-03-01T09:49:28;1.30;50.60
9425;DHT22;17139;52.140;11.636;2023-03-01T09:51:59;2.00;49.20
9425;DHT22;17139;52.140;11.636;2023-03-01T09:54:27;1.80;49.60
9425;DHT22;17139;52.140;11.636;2023-03-01T09:57:06;1.50;50.10
9425;DHT22;17139;52.140;11.636;2023-03-01T09:59:42;1.40;50.70
9425;DHT22;17139;52.140;11.636;2023-03-01T10:02:24;1.30;50.90
9425;DHT22;17139;52.140;11.636;2023-03-01T10:04:57;1.30;51.10
9425;DHT22;17139;52.140;11.636;2023-03-01T10:07:36;1.30;51.20
9425;DHT22;17139;52.140;11.636;2023-03-01T10:10:06;1.30;51.20
9425;DHT22;17139;52.140;11.636;2023-03-01T10:12:35;1.30;51.30
9425;DHT22;17139;52.140;11.636;2023-03-01T10:15:09;1.50;50.90
9425;DHT22;17139;52.140;11.636;2023-03-01T10:17:41;2.10;49.60
9425;DHT22;17139;52.140;11.636;2023-03-01T10:20:19;2.00;50.00
9425;DHT22;17139;52.140;11.636;2023-03-01T10:22:47;1.90;50.40
9425;DHT22;17139;52.140;11.636;2023-03-01T10:25:35;1.80;50.70
9425;DHT22;17139;52.140;11.636;2023-03-01T10:28:12;1.80;50.90
9425;DHT22;17139;52.140;11.636;2023-03-01T10:30:42;1.70;50.90
9425;DHT22;17139;52.140;11.636;2023-03-01T10:33:16;1.80;51.10
9425;DHT22;17139;52.140;11.636;2023-03-01T10:35:45;1.80;51.10
9425;DHT22;17139;52.140;11.636;2023-03-01T10:38:13;1.80;51.10
9425;DHT22;17139;52.140;11.636;2023-03-01T10:40:52;1.90;51.20
9425;DHT22;17139;52.140;11.636;2023-03-01T10:43:20;1.90;51.20
9425;DHT22;17139;52.140;11.636;2023-03-01T10:45:48;1.90;51.10
9425;DHT22;17139;52.140;11.636;2023-03-01T10:48:17;2.00;51.20
9425;DHT22;17139;52.140;11.636;2023-03-01T10:50:48;2.00;51.10
9425;DHT22;17139;52.140;11.636;2023-03-01T10:53:23;2.00;51.20
9425;DHT22;17139;52.140;11.636;2023-03-01T10:56:03;2.00;51.20
9425;DHT22;17139;52.140;11.636;2023-03-01T10:58:33;2.10;51.30
9425;DHT22;17139;52.140;11.636;2023-03-01T11:01:03;2.20;51.30
9425;DHT22;17139;52.140;11.636;2023-03-01T11:03:32;2.20;51.20
9425;DHT22;17139;52.140;11.636;2023-03-01T11:06:12;2.20;51.20
9425;DHT22;17139;52.140;11.636;2023-03-01T11:08:47;2.30;51.20
9425;DHT22;17139;52.140;11.636;2023-03-01T11:11:23;2.30;51.30
9425;DHT22;17139;52.140;11.636;2023-03-01T11:13:56;2.40;51.20
9425;DHT22;17139;52.140;11.636;2023-03-01T11:16:34;2.40;51.10
9425;DHT22;17139;52.140;11.636;2023-03-01T11:19:20;2.40;51.20
9425;DHT22;17139;52.140;11.636;2023-03-01T11:21:58;3.00;49.60
9425;DHT22;17139;52.140;11.636;2023-03-01T11:24:39;2.90;50.00
9425;DHT22;17139;52.140;11.636;2023-03-01T11:27:17;2.80;50.40
9425;DHT22;17139;52.140;11.636;2023-03-01T11:29:46;2.80;50.70
9425;DHT22;17139;52.140;11.636;2023-03-01T11:32:18;2.90;51.00
9425;DHT22;17139;52.140;11.636;2023-03-01T11:34:49;2.80;50.90
9425;DHT22;17139;52.140;11.636;2023-03-01T11:37:29;2.80;50.90
9425;DHT22;17139;52.140;11.636;2023-03-01T11:40:02;2.90;51.00
9425;DHT22;17139;52.140;11.636;2023-03-01T11:42:43;2.90;51.00
9425;DHT22;17139;52.140;11.636;2023-03-01T11:45:13;2.90;51.00
9425;DHT22;17139;52.140;11.636;2023-03-01T11:47:53;2.90;51.00
9425;DHT22;17139;52.140;11.636;2023-03-01T11:50:32;3.10;50.20
9425;DHT22;17139;52.140;11.636;2023-03-01T11:53:23;3.10;50.50
9425;DHT22;17139;52.140;11.636;2023-03-01T11:56:03;3.10;50.70
9425;DHT22;17139;52.140;11.636;2023-03-01T11:58:56;3.10;51.00
9425;DHT22;17139;52.140;11.636;2023-03-01T12:01:46;3.20;51.00
9425;DHT22;17139;52.140;11.636;2023-03-01T12:07:27;3.20;51.00
9425;DHT22;17139;52.140;11.636;2023-03-01T12:13:19;3.30;51.10
9425;DHT22;17139;52.140;11.636;2023-03-01T12:16:07;3.70;49.70
9425;DHT22;17139;52.140;11.636;2023-03-01T12:19:07;4.40;47.80
9425;DHT22;17139;52.140;11.636;2023-03-01T12:21:44;4.20;49.00
9425;DHT22;17139;52.140;11.636;2023-03-01T12:24:31;3.90;49.60
9425;DHT22;17139;52.140;11.636;2023-03-01T12:27:26;3.90;50.10
9425;DHT22;17139;52.140;11.636;2023-03-01T12:30:04;3.80;50.40
9425;DHT22;17139;52.140;11.636;2023-03-01T12:32:46;3.80;50.50
9425;DHT22;17139;52.140;11.636;2023-03-01T12:35:46;3.80;50.70
9425;DHT22;17139;52.140;11.636;2023-03-01T12:38:31;3.80;50.70
9425;DHT22;17139;52.140;11.636;2023-03-01T12:41:33;4.00;49.70
9425;DHT22;17139;52.140;11.636;2023-03-01T12:44:15;4.50;48.10
9425;DHT22;17139;52.140;11.636;2023-03-01T12:46:57;4.40;49.30
9425;DHT22;17139;52.140;11.636;2023-03-01T12:49:33;4.30;49.80
9425;DHT22;17139;52.140;11.636;2023-03-01T12:52:09;4.30;50.00
9425;DHT22;17139;52.140;11.636;2023-03-01T12:54:38;4.30;50.00
9425;DHT22;17139;52.140;11.636;2023-03-01T12:57:12;4.20;50.10
9425;DHT22;17139;52.140;11.636;2023-03-01T12:59:47;4.20;50.10
9425;DHT22;17139;52.140;11.636;2023-03-01T13:02:24;4.20;50.00
9425;DHT22;17139;52.140;11.636;2023-03-01T13:05:05;4.20;50.30
9425;DHT22;17139;52.140;11.636;2023-03-01T13:07:36;4.20;51.00
9425;DHT22;17139;52.140;11.636;2023-03-01T13:10:20;4.20;50.40
9425;DHT22;17139;52.140;11.636;2023-03-01T13:13:00;4.30;50.40
9425;DHT22;17139;52.140;11.636;2023-03-01T13:15:33;4.40;50.10
9425;DHT22;17139;52.140;11.636;2023-03-01T13:18:01;4.50;50.20
9425;DHT22;17139;52.140;11.636;2023-03-01T13:20:35;4.40;50.10
9425;DHT22;17139;52.140;11.636;2023-03-01T13:23:24;4.40;50.10
9425;DHT22;17139;52.140;11.636;2023-03-01T13:26:08;4.40;50.10
9425;DHT22;17139;52.140;11.636;2023-03-01T13:28:55;4.40;50.10
9425;DHT22;17139;52.140;11.636;2023-03-01T13:34:49;4.40;50.20
9425;DHT22;17139;52.140;11.636;2023-03-01T13:37:28;4.40;50.40
9425;DHT22;17139;52.140;11.636;2023-03-01T13:39:58;4.50;50.40
9425;DHT22;17139;52.140;11.636;2023-03-01T13:42:43;4.50;50.30
9425;DHT22;17139;52.140;11.636;2023-03-01T13:45:23;4.60;50.30
9425;DHT22;17139;52.140;11.636;2023-03-01T13:47:58;5.10;48.50
9425;DHT22;17139;52.140;11.636;2023-03-01T13:50:29;5.00;49.30
9425;DHT22;17139;52.140;11.636;2023-03-01T13:52:59;4.90;49.70
9425;DHT22;17139;52.140;11.636;2023-03-01T13:55:36;4.80;49.90
9425;DHT22;17139;52.140;11.636;2023-03-01T13:58:13;4.90;50.20
9425;DHT22;17139;52.140;11.636;2023-03-01T14:00:42;4.90;50.20
9425;DHT22;17139;52.140;11.636;2023-03-01T14:03:11;4.90;50.20
9425;DHT22;17139;52.140;11.636;2023-03-01T14:05:41;4.90;50.20
9425;DHT22;17139;52.140;11.636;2023-03-01T14:08:21;4.90;50.20
9425;DHT22;17139;52.140;11.636;2023-03-01T14:10:57;4.90;50.30
9425;DHT22;17139;52.140;11.636;2023-03-01T14:13:35;5.20;49.10
9425;DHT22;17139;52.140;11.636;2023-03-01T14:16:22;5.80;47.20
9425;DHT22;17139;52.140;11.636;2023-03-01T14:19:00;5.60;48.50
9425;DHT22;17139;52.140;11.636;2023-03-01T14:21:31;5.40;49.10
9425;DHT22;17139;52.140;11.636;2023-03-01T14:23:58;5.30;49.60
9425;DHT22;17139;52.140;11.636;2023-03-01T14:26:25;5.20;50.30
9425;DHT22;17139;52.140;11.636;2023-03-01T14:28:52;5.20;49.90
9425;DHT22;17139;52.140;11.636;2023-03-01T14:31:36;5.20;50.10
9425;DHT22;17139;52.140;11.636;2023-03-01T14:34:03;5.20;50.00
9425;DHT22;17139;52.140;11.636;2023-03-01T14:36:34;5.20;50.10
9425;DHT22;17139;52.140;11.636;2023-03-01T14:39:15;5.20;50.80
9425;DHT22;17139;52.140;11.636;2023-03-01T14:41:42;6.00;46.90
9425;DHT22;17139;52.140;11.636;2023-03-01T14:44:16;5.80;48.30
9425;DHT22;17139;52.140;11.636;2023-03-01T14:46:44;5.80;48.90
9425;DHT22;17139;52.140;11.636;2023-03-01T14:49:15;5.70;49.40
9425;DHT22;17139;52.140;11.636;2023-03-01T14:51:51;5.60;49.60
9425;DHT22;17139;52.140;11.636;2023-03-01T14:54:23;5.50;49.60
9425;DHT22;17139;52.140;11.636;2023-03-01T14:56:51;5.40;49.70
9425;DHT22;17139;52.140;11.636;2023-03-01T14:59:21;5.40;49.90
9425;DHT22;17139;52.140;11.636;2023-03-01T15:01:48;5.40;50.00
9425;DHT22;17139;52.140;11.636;2023-03-01T15:04:16;5.40;50.70
9425;DHT22;17139;52.140;11.636;2023-03-01T15:06:45;5.40;50.00
9425;DHT22;17139;52.140;11.636;2023-03-01T15:09:14;5.40;50.10
9425;DHT22;17139;52.140;11.636;2023-03-01T15:11:43;5.30;50.10
9425;DHT22;17139;52.140;11.636;2023-03-01T15:14:27;5.20;50.20
9425;DHT22;17139;52.140;11.636;2023-03-01T15:16:55;5.20;50.30
9425;DHT22;17139;52.140;11.636;2023-03-01T15:19:26;5.20;50.40
9425;DHT22;17139;52.140;11.636;2023-03-01T15:21:56;5.10;50.40
9425;DHT22;17139;52.140;11.636;2023-03-01T15:24:25;5.10;50.50
9425;DHT22;17139;52.140;11.636;2023-03-01T15:26:56;5.10;50.60
9425;DHT22;17139;52.140;11.636;2023-03-01T15:29:28;5.70;47.60
9425;DHT22;17139;52.140;11.636;2023-03-01T15:31:58;5.60;48.80
9425;DHT22;17139;52.140;11.636;2023-03-01T15:34:26;5.40;49.30
9425;DHT22;17139;52.140;11.636;2023-03-01T15:36:57;5.30;49.70
9425;DHT22;17139;52.140;11.636;2023-03-01T15:39:37;5.40;48.70
9425;DHT22;17139;52.140;11.636;2023-03-01T15:42:07;5.30;49.30
9425;DHT22;17139;52.140;11.636;2023-03-01T15:44:36;5.20;49.80
9425;DHT22;17139;52.140;11.636;2023-03-01T15:47:23;5.10;50.00
9425;DHT22;17139;52.140;11.636;2023-03-01T15:49:53;5.20;49.00
9425;DHT22;17139;52.140;11.636;2023-03-01T15:52:24;5.10;49.60
9425;DHT22;17139;52.140;11.636;2023-03-01T15:54:55;5.00;49.90
9425;DHT22;17139;52.140;11.636;2023-03-01T15:57:23;4.90;50.10
9425;DHT22;17139;52.140;11.636;2023-03-01T15:59:50;4.90;50.90
9425;DHT22;17139;52.140;11.636;2023-03-01T16:02:17;4.80;50.30
9425;DHT22;17139;52.140;11.636;2023-03-01T16:04:46;4.80;50.50
9425;DHT22;17139;52.140;11.636;2023-03-01T16:07:14;5.50;47.20
9425;DHT22;17139;52.140;11.636;2023-03-01T16:09:42;5.30;48.40
9425;DHT22;17139;52.140;11.636;2023-03-01T16:12:13;5.00;49.10